createdAt,value
2023-05-17T00:00:57.287Z,101077.28
2023-05-17T00:03:24.145Z,101068.72
2023-05-17T00:05:50.862Z,101076.81
2023-05-17T00:08:17.548Z,101076.38
2023-05-17T00:10:44.323Z,101076.00
2023-05-17T00:13:11.382Z,101069.56
2023-05-17T00:15:38.127Z,101074.50
2023-05-17T00:18:04.967Z,101075.66
2023-05-17T00:20:31.826Z,101065.00
2023-05-17T00:22:58.539Z,101062.91
2023-05-17T00:25:25.491Z,101066.66
2023-05-17T00:27:52.382Z,101067.22
2023-05-17T00:30:19.073Z,101071.09
2023-05-17T00:32:47.017Z,101080.72
2023-05-17T00:35:15.365Z,101075.09
2023-05-17T00:37:47.582Z,101068.28
2023-05-17T00:40:18.320Z,101085.41
2023-05-17T00:42:45.322Z,101084.69
2023-05-17T00:45:12.245Z,101083.28
2023-05-17T00:47:39.246Z,101086.69
2023-05-17T00:50:06.731Z,101087.03
2023-05-17T00:52:33.811Z,101086.22
2023-05-17T00:55:00.758Z,101085.63
2023-05-17T00:57:29.204Z,101085.97
2023-05-17T00:59:56.322Z,101078.47
2023-05-17T01:02:24.403Z,101091.13
2023-05-17T01:04:51.207Z,101077.78
2023-05-17T01:07:18.147Z,101090.78
2023-05-17T01:09:47.458Z,101089.72
2023-05-17T01:12:29.070Z,101083.28
2023-05-17T01:15:15.565Z,101093.97
2023-05-17T01:17:45.698Z,101086.31
2023-05-17T01:20:26.912Z,101089.41
2023-05-17T01:23:11.258Z,101088.31
2023-05-17T01:25:57.476Z,101090.06
2023-05-17T01:28:26.394Z,101096.50
2023-05-17T01:30:54.593Z,101107.41
2023-05-17T01:33:21.932Z,101108.09
2023-05-17T01:35:48.785Z,101106.81
2023-05-17T01:38:15.656Z,101105.78
2023-05-17T01:40:58.671Z,101115.13
2023-05-17T01:43:47.996Z,101121.47
2023-05-17T01:46:26.582Z,101123.09
2023-05-17T01:49:10.994Z,101119.81
2023-05-17T01:51:47.497Z,101124.63
2023-05-17T01:54:21.851Z,101122.97
2023-05-17T01:56:56.587Z,101125.88
2023-05-17T01:59:25.410Z,101123.19
2023-05-17T02:01:58.525Z,101124.16
2023-05-17T02:04:25.301Z,101131.97
2023-05-17T02:06:52.760Z,101121.91
2023-05-17T02:09:19.486Z,101127.69
2023-05-17T02:11:46.197Z,101132.25
2023-05-17T02:14:12.921Z,101133.38
2023-05-17T02:16:40.341Z,101135.19
2023-05-17T02:19:09.065Z,101126.13
2023-05-17T02:21:35.803Z,101133.63
2023-05-17T02:24:02.857Z,101133.84
2023-05-17T02:26:29.648Z,101136.09
2023-05-17T02:28:56.416Z,101131.97
2023-05-17T02:31:27.062Z,101131.94
2023-05-17T02:33:54.690Z,101133.91
2023-05-17T02:36:23.319Z,101143.28
2023-05-17T02:38:50.203Z,101135.41
2023-05-17T02:41:16.937Z,101135.09
2023-05-17T02:43:43.687Z,101143.84
2023-05-17T02:46:10.597Z,101148.31
2023-05-17T02:48:37.664Z,101138.09
2023-05-17T02:51:04.676Z,101156.44
2023-05-17T02:53:31.618Z,101162.28
2023-05-17T02:55:58.571Z,101153.56
2023-05-17T02:58:25.917Z,101143.63
2023-05-17T03:00:53.074Z,101154.47
2023-05-17T03:03:19.933Z,101151.34
2023-05-17T03:05:46.954Z,101166.44
2023-05-17T03:08:14.161Z,101164.56
2023-05-17T03:10:42.067Z,101161.06
2023-05-17T03:13:10.082Z,101158.94
2023-05-17T03:15:39.180Z,101162.22
2023-05-17T03:18:06.437Z,101156.56
2023-05-17T03:20:34.018Z,101157.03
2023-05-17T03:23:01.280Z,101163.63
2023-05-17T03:25:28.368Z,101164.78
2023-05-17T03:27:56.019Z,101173.09
2023-05-17T03:30:22.842Z,101171.75
2023-05-17T03:32:50.171Z,101171.16
2023-05-17T03:35:17.248Z,101175.78
2023-05-17T03:37:48.279Z,101174.44
2023-05-17T03:40:15.143Z,101175.66
2023-05-17T03:42:42.225Z,101179.38
2023-05-17T03:45:10.382Z,101175.78
2023-05-17T03:47:37.183Z,101177.06
2023-05-17T03:50:05.911Z,101182.13
2023-05-17T03:52:33.337Z,101187.22
2023-05-17T03:55:00.302Z,101179.44
2023-05-17T03:57:27.122Z,101180.06
2023-05-17T03:59:54.398Z,101179.59
2023-05-17T04:02:22.209Z,101186.84
2023-05-17T04:04:50.539Z,101182.22
2023-05-17T04:07:19.156Z,101183.69
2023-05-17T04:09:47.485Z,101182.34
2023-05-17T04:12:14.269Z,101180.88
2023-05-17T04:14:41.358Z,101195.22
2023-05-17T04:17:08.170Z,101195.06
2023-05-17T04:19:35.233Z,101196.84
2023-05-17T04:22:02.042Z,101189.09
2023-05-17T04:24:29.448Z,101197.31
2023-05-17T04:26:57.212Z,101204.19
2023-05-17T04:29:25.484Z,101217.16
2023-05-17T04:31:52.360Z,101211.88
2023-05-17T04:34:19.444Z,101215.97
2023-05-17T04:36:46.329Z,101222.94
2023-05-17T04:39:13.110Z,101225.09
2023-05-17T04:41:40.448Z,101223.00
2023-05-17T04:44:11.229Z,101224.88
2023-05-17T04:46:37.953Z,101225.94
2023-05-17T04:49:04.800Z,101224.19
2023-05-17T04:51:31.801Z,101236.09
2023-05-17T04:54:01.052Z,101231.09
2023-05-17T04:56:29.696Z,101246.94
2023-05-17T04:58:57.224Z,101243.09
2023-05-17T05:01:24.088Z,101243.25
2023-05-17T05:03:51.584Z,101248.91
2023-05-17T05:06:18.595Z,101262.00
2023-05-17T05:08:45.377Z,101256.63
2023-05-17T05:11:13.018Z,101261.19
2023-05-17T05:13:41.663Z,101261.69
2023-05-17T05:16:08.851Z,101265.72
2023-05-17T05:18:36.918Z,101277.22
2023-05-17T05:21:04.196Z,101278.84
2023-05-17T05:23:32.455Z,101275.56
2023-05-17T05:25:59.265Z,101287.09
2023-05-17T05:28:26.903Z,101289.50
2023-05-17T05:30:59.217Z,101279.84
2023-05-17T05:33:27.822Z,101294.13
2023-05-17T05:35:56.801Z,101284.97
2023-05-17T05:38:23.552Z,101290.69
2023-05-17T05:40:50.388Z,101296.56
2023-05-17T05:43:17.299Z,101288.06
2023-05-17T05:45:47.148Z,101292.91
2023-05-17T05:48:14.624Z,101295.75
2023-05-17T05:50:43.709Z,101298.72
2023-05-17T05:53:18.817Z,101303.78
2023-05-17T05:55:52.054Z,101301.53
2023-05-17T05:58:19.956Z,101309.03
2023-05-17T06:00:47.693Z,101302.34
2023-05-17T06:03:15.006Z,101310.59
2023-05-17T06:05:41.951Z,101313.38
2023-05-17T06:08:08.833Z,101315.50
2023-05-17T06:10:35.536Z,101310.09
2023-05-17T06:13:02.351Z,101318.91
2023-05-17T06:15:30.985Z,101325.03
2023-05-17T06:17:57.845Z,101326.78
2023-05-17T06:20:24.666Z,101330.75
2023-05-17T06:22:51.351Z,101328.38
2023-05-17T06:25:18.173Z,101337.06
2023-05-17T06:27:44.895Z,101335.81
2023-05-17T06:30:12.346Z,101334.69
2023-05-17T06:32:39.297Z,101341.44
2023-05-17T06:35:06.950Z,101348.47
2023-05-17T06:37:33.877Z,101345.94
2023-05-17T06:40:15.508Z,101350.81
2023-05-17T06:42:43.697Z,101353.09
2023-05-17T06:45:10.960Z,101347.25
2023-05-17T06:47:37.837Z,101353.03
2023-05-17T06:50:05.383Z,101359.06
2023-05-17T06:52:32.225Z,101352.31
2023-05-17T06:54:58.937Z,101354.84
2023-05-17T06:57:25.640Z,101347.19
2023-05-17T06:59:52.385Z,101351.34
2023-05-17T07:02:19.615Z,101352.06
2023-05-17T07:04:46.346Z,101348.97
2023-05-17T07:07:13.098Z,101356.34
2023-05-17T07:09:39.982Z,101365.53
2023-05-17T07:12:07.173Z,101368.44
2023-05-17T07:14:34.117Z,101364.34
2023-05-17T07:17:01.494Z,101369.13
2023-05-17T07:19:28.660Z,101364.09
2023-05-17T07:21:55.494Z,101363.38
2023-05-17T07:24:22.250Z,101368.34
2023-05-17T07:26:50.227Z,101362.63
2023-05-17T07:29:18.834Z,101373.28
2023-05-17T07:31:45.650Z,101372.97
2023-05-17T07:34:13.669Z,101367.03
2023-05-17T07:36:40.487Z,101363.13
2023-05-17T07:39:08.696Z,101355.25
2023-05-17T07:41:36.406Z,101357.06
2023-05-17T07:44:03.175Z,101361.16
2023-05-17T07:46:29.913Z,101359.25
2023-05-17T07:48:58.529Z,101368.66
2023-05-17T07:51:26.303Z,101370.94
2023-05-17T07:53:53.134Z,101362.34
2023-05-17T07:56:19.826Z,101366.41
2023-05-17T07:58:46.691Z,101373.44
2023-05-17T08:01:13.382Z,101375.81
2023-05-17T08:03:47.597Z,101367.16
2023-05-17T08:06:17.750Z,101367.72
2023-05-17T08:08:45.020Z,101372.25
2023-05-17T08:11:12.987Z,101368.91
2023-05-17T08:13:39.936Z,101370.91
2023-05-17T08:16:14.289Z,101362.53
2023-05-17T08:18:44.812Z,101366.56
2023-05-17T08:21:11.844Z,101354.41
2023-05-17T08:23:39.261Z,101365.59
2023-05-17T08:26:06.070Z,101362.50
2023-05-17T08:28:32.803Z,101361.44
2023-05-17T08:30:59.466Z,101364.28
2023-05-17T08:33:27.429Z,101363.16
2023-05-17T08:35:57.980Z,101362.44
2023-05-17T08:38:24.776Z,101353.09
2023-05-17T08:40:55.771Z,101357.59
2023-05-17T08:43:26.873Z,101357.31
2023-05-17T08:45:57.558Z,101349.22
2023-05-17T08:48:31.176Z,101349.16
2023-05-17T08:50:59.995Z,101352.75
2023-05-17T08:53:27.102Z,101356.72
2023-05-17T08:55:58.855Z,101346.72
2023-05-17T08:58:29.357Z,101348.03
2023-05-17T09:00:59.620Z,101347.47
2023-05-17T09:03:27.741Z,101346.66
2023-05-17T09:05:54.746Z,101341.22
2023-05-17T09:08:23.061Z,101342.84
2023-05-17T09:10:50.654Z,101343.41
2023-05-17T09:13:17.540Z,101346.22
2023-05-17T09:15:47.158Z,101343.53
2023-05-17T09:18:16.984Z,101345.03
2023-05-17T09:20:51.656Z,101346.84
2023-05-17T09:23:20.999Z,101347.44
2023-05-17T09:25:49.707Z,101348.91
2023-05-17T09:28:20.352Z,101341.28
2023-05-17T09:30:49.212Z,101341.63
2023-05-17T09:33:18.550Z,101345.66
2023-05-17T09:35:45.878Z,101345.66
2023-05-17T09:38:13.861Z,101350.81
2023-05-17T09:40:42.742Z,101356.41
2023-05-17T09:43:10.282Z,101351.31
2023-05-17T09:45:37.447Z,101356.81
2023-05-17T09:48:22.200Z,101364.53
2023-05-17T09:50:51.156Z,101362.84
2023-05-17T09:53:28.597Z,101363.13
2023-05-17T09:55:58.679Z,101366.75
2023-05-17T09:58:28.412Z,101363.47
2023-05-17T10:01:01.547Z,101354.41
2023-05-17T10:03:33.302Z,101355.84
2023-05-17T10:06:05.227Z,101359.59
2023-05-17T10:08:33.558Z,101359.84
2023-05-17T10:11:07.242Z,101353.78
2023-05-17T10:13:40.697Z,101357.72
2023-05-17T10:16:07.579Z,101358.53
2023-05-17T10:18:34.965Z,101352.09
2023-05-17T10:21:02.159Z,101348.25
2023-05-17T10:23:30.933Z,101347.81
2023-05-17T10:25:59.600Z,101356.00
2023-05-17T10:28:27.173Z,101358.06
2023-05-17T10:30:54.886Z,101354.28
2023-05-17T10:33:24.375Z,101352.91
2023-05-17T10:35:52.094Z,101350.19
2023-05-17T10:38:20.514Z,101355.94
2023-05-17T10:40:51.656Z,101350.56
2023-05-17T10:43:18.770Z,101345.44
2023-05-17T10:45:46.471Z,101355.09
2023-05-17T10:48:15.713Z,101349.81
2023-05-17T10:50:54.570Z,101352.44
2023-05-17T10:53:28.443Z,101343.84
2023-05-17T10:55:55.415Z,101346.41
2023-05-17T10:58:26.559Z,101336.00
2023-05-17T11:00:55.835Z,101344.25
2023-05-17T11:03:30.250Z,101339.66
2023-05-17T11:06:25.389Z,101341.53
2023-05-17T11:09:18.776Z,101338.28
2023-05-17T11:12:12.416Z,101338.69
2023-05-17T11:14:45.986Z,101346.25
2023-05-17T11:17:21.232Z,101334.63
2023-05-17T11:19:54.757Z,101345.94
2023-05-17T11:22:33.976Z,101346.78
2023-05-17T11:25:05.640Z,101343.78
2023-05-17T11:27:37.524Z,101346.09
2023-05-17T11:30:26.695Z,101337.13
2023-05-17T11:33:25.476Z,101330.91
2023-05-17T11:36:05.440Z,101336.31
2023-05-17T11:38:32.867Z,101326.25
2023-05-17T11:41:26.365Z,101329.66
2023-05-17T11:43:54.419Z,101338.13
2023-05-17T11:46:23.002Z,101337.84
2023-05-17T11:48:53.922Z,101329.88
2023-05-17T11:51:24.661Z,101325.69
2023-05-17T11:53:55.492Z,101324.94
2023-05-17T11:56:29.149Z,101329.44
2023-05-17T11:58:59.426Z,101328.53
2023-05-17T12:01:26.193Z,101324.69
2023-05-17T12:03:59.829Z,101322.56
2023-05-17T12:06:28.699Z,101310.03
2023-05-17T12:08:55.759Z,101328.19
2023-05-17T12:11:22.694Z,101313.41
2023-05-17T12:13:51.901Z,101312.59
2023-05-17T12:16:22.556Z,101323.63
2023-05-17T12:18:51.242Z,101307.81
2023-05-17T12:21:20.501Z,101307.78
2023-05-17T12:23:51.305Z,101301.28
2023-05-17T12:26:20.145Z,101297.94
2023-05-17T12:28:53.307Z,101297.50
2023-05-17T12:31:32.498Z,101296.19
2023-05-17T12:34:02.054Z,101301.50
2023-05-17T12:36:29.989Z,101305.97
2023-05-17T12:38:57.357Z,101295.56
2023-05-17T12:41:29.459Z,101295.56
2023-05-17T12:44:06.209Z,101291.75
2023-05-17T12:46:34.009Z,101290.34
2023-05-17T12:49:07.263Z,101286.34
2023-05-17T12:51:47.020Z,101291.94
2023-05-17T12:54:29.637Z,101286.53
2023-05-17T12:56:56.907Z,101294.72
2023-05-17T12:59:25.878Z,101283.78
2023-05-17T13:01:58.045Z,101281.53
2023-05-17T13:04:32.646Z,101286.94
2023-05-17T13:07:02.347Z,101281.00
2023-05-17T13:09:31.220Z,101279.44
2023-05-17T13:12:05.441Z,101281.19
2023-05-17T13:14:45.629Z,101281.78
2023-05-17T13:17:24.121Z,101277.03
2023-05-17T13:19:51.086Z,101271.38
2023-05-17T13:22:18.117Z,101263.34
2023-05-17T13:24:45.218Z,101253.28
2023-05-17T13:27:12.630Z,101266.25
2023-05-17T13:29:41.681Z,101261.97
2023-05-17T13:32:10.676Z,101259.91
2023-05-17T13:34:37.720Z,101258.63
2023-05-17T13:37:05.925Z,101254.81
2023-05-17T13:39:33.983Z,101259.78
2023-05-17T13:42:00.781Z,101256.56
2023-05-17T13:44:27.900Z,101249.06
2023-05-17T13:46:54.599Z,101252.16
2023-05-17T13:49:21.426Z,101246.72
2023-05-17T13:51:48.272Z,101245.91
2023-05-17T13:54:15.122Z,101228.53
2023-05-17T13:56:41.916Z,101234.50
2023-05-17T13:59:08.695Z,101232.88
2023-05-17T14:01:35.495Z,101227.97
2023-05-17T14:04:02.383Z,101229.34
2023-05-17T14:06:29.346Z,101238.59
2023-05-17T14:08:57.136Z,101236.34
2023-05-17T14:11:23.933Z,101240.09
2023-05-17T14:13:51.766Z,101239.06
2023-05-17T14:16:18.472Z,101236.69
2023-05-17T14:18:46.315Z,101235.63
2023-05-17T14:21:13.176Z,101233.91
2023-05-17T14:23:39.878Z,101225.66
2023-05-17T14:26:07.527Z,101227.72
2023-05-17T14:28:37.976Z,101230.13
2023-05-17T14:31:10.648Z,101217.91
2023-05-17T14:33:37.441Z,101224.53
2023-05-17T14:36:04.620Z,101228.66
2023-05-17T14:38:31.501Z,101218.47
2023-05-17T14:41:00.612Z,101220.59
2023-05-17T14:43:28.087Z,101219.16
2023-05-17T14:45:54.748Z,101224.13
2023-05-17T14:48:21.542Z,101214.00
2023-05-17T14:50:48.304Z,101225.03
2023-05-17T14:53:15.076Z,101229.13
2023-05-17T14:55:42.447Z,101225.84
2023-05-17T14:58:09.271Z,101217.53
2023-05-17T15:00:36.115Z,101227.28
2023-05-17T15:03:03.111Z,101214.75
2023-05-17T15:05:30.375Z,101219.69
2023-05-17T15:07:57.722Z,101219.88
2023-05-17T15:10:24.441Z,101224.41
2023-05-17T15:12:51.113Z,101226.09
2023-05-17T15:15:20.513Z,101222.50
2023-05-17T15:17:47.649Z,101216.50
2023-05-17T15:20:15.513Z,101223.31
2023-05-17T15:22:42.275Z,101220.66
2023-05-17T15:25:09.163Z,101217.50
2023-05-17T15:27:36.294Z,101214.50
2023-05-17T15:30:03.104Z,101225.38
2023-05-17T15:32:34.082Z,101219.47
2023-05-17T15:35:01.177Z,101211.50
2023-05-17T15:37:30.118Z,101211.59
2023-05-17T15:39:57.077Z,101210.53
2023-05-17T15:42:23.770Z,101211.22
2023-05-17T15:44:50.437Z,101211.63
2023-05-17T15:47:17.130Z,101214.16
2023-05-17T15:49:43.843Z,101207.38
2023-05-17T15:52:12.607Z,101209.50
2023-05-17T15:54:39.311Z,101204.47
2023-05-17T15:57:06.374Z,101193.44
2023-05-17T15:59:33.299Z,101198.13
2023-05-17T16:01:59.985Z,101200.53
2023-05-17T16:04:26.818Z,101201.22
2023-05-17T16:06:53.504Z,101203.69
2023-05-17T16:09:20.153Z,101199.91
2023-05-17T16:11:46.873Z,101195.03
2023-05-17T16:14:13.624Z,101197.72
2023-05-17T16:16:40.441Z,101202.66
2023-05-17T16:19:07.215Z,101198.31
2023-05-17T16:21:33.981Z,101196.94
2023-05-17T16:24:01.376Z,101196.41
2023-05-17T16:26:28.097Z,101196.94
2023-05-17T16:28:56.753Z,101204.84
2023-05-17T16:31:23.823Z,101209.75
2023-05-17T16:33:51.614Z,101204.84
2023-05-17T16:36:18.693Z,101212.19
2023-05-17T16:38:45.373Z,101217.09
2023-05-17T16:41:12.280Z,101211.94
2023-05-17T16:43:39.179Z,101207.56
2023-05-17T16:46:06.132Z,101210.56
2023-05-17T16:48:32.908Z,101213.81
2023-05-17T16:51:00.071Z,101208.66
2023-05-17T16:53:29.587Z,101215.44
2023-05-17T16:55:56.469Z,101219.25
2023-05-17T16:58:23.276Z,101210.53
2023-05-17T17:00:50.021Z,101218.44
2023-05-17T17:03:16.843Z,101208.09
2023-05-17T17:05:43.616Z,101210.81
2023-05-17T17:08:10.321Z,101212.72
2023-05-17T17:10:37.034Z,101209.47
2023-05-17T17:13:03.908Z,101213.81
2023-05-17T17:15:30.806Z,101212.13
2023-05-17T17:17:57.607Z,101219.75
2023-05-17T17:20:24.939Z,101209.69
2023-05-17T17:22:52.030Z,101217.53
2023-05-17T17:25:19.161Z,101220.78
2023-05-17T17:27:45.876Z,101221.03
2023-05-17T17:30:12.909Z,101222.41
2023-05-17T17:32:39.654Z,101217.47
2023-05-17T17:35:07.035Z,101223.72
2023-05-17T17:37:33.722Z,101214.75
2023-05-17T17:40:00.802Z,101222.91
2023-05-17T17:42:29.684Z,101218.00
2023-05-17T17:44:58.135Z,101218.78
2023-05-17T17:47:25.030Z,101223.38
2023-05-17T17:49:51.795Z,101226.66
2023-05-17T17:52:18.480Z,101231.53
2023-05-17T17:54:46.238Z,101229.34
2023-05-17T17:57:13.265Z,101221.47
2023-05-17T17:59:40.056Z,101232.56
2023-05-17T18:02:06.793Z,101234.25
2023-05-17T18:04:33.643Z,101235.91
2023-05-17T18:07:01.948Z,101234.84
2023-05-17T18:09:28.802Z,101244.13
2023-05-17T18:11:57.003Z,101244.09
2023-05-17T18:14:23.741Z,101246.81
2023-05-17T18:16:50.546Z,101233.94
2023-05-17T18:19:17.397Z,101246.22
2023-05-17T18:21:44.498Z,101239.16
2023-05-17T18:24:11.351Z,101242.38
2023-05-17T18:26:38.058Z,101246.22
2023-05-17T18:29:04.919Z,101234.19
2023-05-17T18:31:31.854Z,101238.53
2023-05-17T18:33:58.792Z,101241.16
2023-05-17T18:36:25.659Z,101234.56
2023-05-17T18:38:52.512Z,101235.66
2023-05-17T18:41:19.239Z,101235.09
2023-05-17T18:43:45.981Z,101231.78
2023-05-17T18:46:13.053Z,101235.84
2023-05-17T18:48:40.766Z,101228.00
2023-05-17T18:51:07.789Z,101232.28
2023-05-17T18:53:36.111Z,101230.69
2023-05-17T18:56:02.936Z,101235.28
2023-05-17T18:58:29.924Z,101230.31
2023-05-17T19:00:56.975Z,101245.41
2023-05-17T19:03:23.670Z,101236.38
2023-05-17T19:05:50.416Z,101239.91
2023-05-17T19:08:17.179Z,101239.09
2023-05-17T19:10:43.993Z,101245.03
2023-05-17T19:13:11.252Z,101250.97
2023-05-17T19:15:38.117Z,101249.84
2023-05-17T19:18:04.986Z,101248.16
2023-05-17T19:20:36.006Z,101251.13
2023-05-17T19:23:04.288Z,101251.13
2023-05-17T19:25:30.929Z,101251.66
2023-05-17T19:27:57.677Z,101257.59
2023-05-17T19:30:24.448Z,101261.16
2023-05-17T19:32:51.417Z,101260.81
2023-05-17T19:35:18.356Z,101264.03
2023-05-17T19:37:45.134Z,101271.41
2023-05-17T19:40:12.388Z,101274.94
2023-05-17T19:42:39.632Z,101276.88
2023-05-17T19:45:09.724Z,101276.63
2023-05-17T19:47:36.749Z,101282.00
2023-05-17T19:50:03.814Z,101282.91
2023-05-17T19:52:31.436Z,101275.59
2023-05-17T19:54:58.128Z,101288.00
2023-05-17T19:57:25.186Z,101277.38
2023-05-17T19:59:52.412Z,101288.47
2023-05-17T20:02:19.380Z,101293.09
2023-05-17T20:04:46.663Z,101288.22
2023-05-17T20:07:13.624Z,101290.22
2023-05-17T20:09:40.811Z,101291.75
2023-05-17T20:12:08.010Z,101285.69
2023-05-17T20:14:35.080Z,101287.06
2023-05-17T20:17:02.612Z,101292.31
2023-05-17T20:19:32.289Z,101285.91
2023-05-17T20:21:59.164Z,101281.84
2023-05-17T20:24:28.838Z,101285.47
2023-05-17T20:26:58.840Z,101287.78
2023-05-17T20:29:25.629Z,101289.25
2023-05-17T20:31:52.439Z,101291.16
2023-05-17T20:34:19.485Z,101295.84
2023-05-17T20:36:46.334Z,101304.69
2023-05-17T20:39:15.115Z,101299.22
2023-05-17T20:41:42.303Z,101300.75
2023-05-17T20:44:10.306Z,101298.09
2023-05-17T20:46:37.082Z,101302.59
2023-05-17T20:49:03.824Z,101294.56
2023-05-17T20:51:30.943Z,101296.03
2023-05-17T20:53:57.685Z,101292.53
2023-05-17T20:56:25.502Z,101301.47
2023-05-17T20:58:52.210Z,101302.69
2023-05-17T21:01:20.056Z,101305.00
2023-05-17T21:03:46.980Z,101296.91
2023-05-17T21:06:13.829Z,101300.56
2023-05-17T21:08:41.850Z,101308.44
2023-05-17T21:11:08.824Z,101309.50
2023-05-17T21:13:35.495Z,101307.38
2023-05-17T21:16:02.504Z,101315.22
2023-05-17T21:18:29.257Z,101317.19
2023-05-17T21:20:56.027Z,101322.13
2023-05-17T21:23:22.669Z,101314.41
2023-05-17T21:25:49.567Z,101317.94
2023-05-17T21:28:16.365Z,101325.19
2023-05-17T21:30:43.068Z,101324.03
2023-05-17T21:33:10.038Z,101320.06
2023-05-17T21:35:36.869Z,101319.75
2023-05-17T21:38:03.793Z,101321.63
2023-05-17T21:40:30.981Z,101319.25
2023-05-17T21:42:57.986Z,101314.66
2023-05-17T21:45:24.846Z,101312.84
2023-05-17T21:47:52.474Z,101316.06
2023-05-17T21:50:19.488Z,101313.28
2023-05-17T21:52:46.304Z,101317.09
2023-05-17T21:55:13.175Z,101313.94
2023-05-17T21:57:40.166Z,101322.50
2023-05-17T22:00:07.978Z,101316.41
2023-05-17T22:02:36.005Z,101317.53
2023-05-17T22:05:03.245Z,101316.66
2023-05-17T22:07:31.675Z,101308.13
2023-05-17T22:09:58.913Z,101314.84
2023-05-17T22:12:26.844Z,101315.47
2023-05-17T22:14:55.745Z,101310.50
2023-05-17T22:17:35.192Z,101317.34
2023-05-17T22:20:11.772Z,101311.13
2023-05-17T22:22:38.726Z,101317.13
2023-05-17T22:25:06.795Z,101316.69
2023-05-17T22:27:33.883Z,101317.13
2023-05-17T22:30:01.113Z,101316.56
2023-05-17T22:32:27.962Z,101318.56
2023-05-17T22:34:56.016Z,101317.63
2023-05-17T22:37:23.521Z,101320.91
2023-05-17T22:39:50.446Z,101323.16
2023-05-17T22:42:17.192Z,101321.38
2023-05-17T22:44:43.974Z,101313.53
2023-05-17T22:47:14.841Z,101312.59
2023-05-17T22:49:42.183Z,101319.38
2023-05-17T22:52:10.969Z,101321.72
2023-05-17T22:54:38.181Z,101320.66
2023-05-17T22:57:05.251Z,101323.50
2023-05-17T22:59:33.092Z,101319.59
2023-05-17T23:02:02.104Z,101320.13
2023-05-17T23:04:30.203Z,101325.50
2023-05-17T23:07:02.075Z,101330.09
2023-05-17T23:09:33.761Z,101327.03
2023-05-17T23:12:05.454Z,101321.72
2023-05-17T23:14:36.206Z,101328.50
2023-05-17T23:17:04.178Z,101326.53
2023-05-17T23:19:32.697Z,101325.97
2023-05-17T23:22:06.154Z,101321.13
2023-05-17T23:24:38.279Z,101332.72
2023-05-17T23:27:05.943Z,101323.09
2023-05-17T23:29:33.711Z,101322.72
2023-05-17T23:32:00.659Z,101322.88
2023-05-17T23:34:27.585Z,101322.94
2023-05-17T23:36:54.332Z,101320.06
2023-05-17T23:39:21.039Z,101319.94
2023-05-17T23:41:48.397Z,101313.13
2023-05-17T23:44:15.121Z,101318.53
2023-05-17T23:46:44.423Z,101309.16
2023-05-17T23:49:11.252Z,101310.28
2023-05-17T23:51:37.917Z,101308.88
2023-05-17T23:54:04.956Z,101313.94
2023-05-17T23:56:31.664Z,101311.78
2023-05-17T23:58:58.384Z,101309.00
